| time (UTC) | temp C | wind direction | speed KPH | gust KPH | rain 1hr cm | rain 24hr cm | rain mn cm | humidity % | barometer mb |
| 20260507095323 | 22 | 222 | 4.8 | 8.0 | 0.00 | 0.00 | 0.00 | 85 | 1012.0 |
| 20260507094820 | 22 | 225 | 6.4 | 9.7 | 0.00 | 0.00 | 0.00 | 85 | 1011.8 |
| 20260507094317 | 22 | 195 | 4.8 | 9.7 | 0.00 | 0.00 | 0.00 | 84 | 1011.8 |
| 20260507093814 | 22 | 199 | 4.8 | 11.3 | 0.00 | 0.00 | 0.00 | 84 | 1011.7 |
| 20260507093312 | 22 | 180 | 4.8 | 8.0 | 0.00 | 0.00 | 0.00 | 84 | 1011.6 |
| 20260507092810 | 23 | 208 | 4.8 | 9.7 | 0.00 | 0.00 | 0.00 | 84 | 1011.4 |
| 20260507092307 | 23 | 207 | 3.2 | 9.7 | 0.00 | 0.00 | 0.00 | 83 | 1011.7 |
| 20260507091803 | 23 | 225 | 4.8 | 11.3 | 0.00 | 0.00 | 0.00 | 83 | 1011.5 |
| 20260507091259 | 23 | 209 | 3.2 | 4.8 | 0.00 | 0.00 | 0.00 | 83 | 1011.3 |
| 20260507090759 | 23 | 198 | 6.4 | 14.5 | 0.00 | 0.00 | 0.00 | 83 | 1011.3 |
| 20260507090256 | 23 | 250 | 3.2 | 16.1 | 0.00 | 0.00 | 0.00 | 83 | 1011.4 |
| 20260507085753 | 23 | 257 | 6.4 | 14.5 | 0.00 | 0.00 | 0.00 | 83 | 1011.3 |
| 20260507085250 | 23 | 223 | 8.0 | 11.3 | 0.00 | 0.00 | 0.00 | 83 | 1011.2 |
| 20260507084747 | 23 | 197 | 16.1 | 20.9 | 0.00 | 0.00 | 0.00 | 83 | 1011.0 |
| 20260507084243 | 23 | 203 | 12.9 | 22.5 | 0.00 | 0.00 | 0.00 | 83 | 1010.7 |
| 20260507083741 | 23 | 185 | 8.0 | 27.4 | 0.00 | 0.00 | 0.00 | 83 | 1010.4 |
| 20260507083238 | 23 | 194 | 11.3 | 20.9 | 0.00 | 0.00 | 0.00 | 83 | 1010.7 |
| 20260507082734 | 23 | 218 | 6.4 | 9.7 | 0.00 | 0.00 | 0.00 | 84 | 1010.7 |
| 20260507082229 | 23 | 182 | 11.3 | 16.1 | 0.00 | 0.00 | 0.00 | 84 | 1010.9 |
| 20260507081727 | 23 | 205 | 3.2 | 16.1 | 0.00 | 0.00 | 0.00 | 85 | 1010.8 |
| 20260507081222 | 23 | 291 | 8.0 | 16.1 | 0.00 | 0.00 | 0.00 | 85 | 1010.8 |
| 20260507080719 | 23 | 237 | 11.3 | 17.7 | 0.00 | 0.00 | 0.00 | 85 | 1010.8 |
| 20260507080215 | 23 | 234 | 3.2 | 14.5 | 0.00 | 0.00 | 0.00 | 85 | 1010.7 |
| 20260507075711 | 23 | 214 | 8.0 | 14.5 | 0.00 | 0.00 | 0.00 | 86 | 1010.7 |
| 20260507075208 | 23 | 230 | 11.3 | 12.9 | 0.00 | 0.00 | 0.00 | 86 | 1010.4 |
| 20260507074704 | 23 | 222 | 12.9 | 22.5 | 0.00 | 0.00 | 0.00 | 86 | 1010.5 |
| 20260507074202 | 23 | 196 | 8.0 | 24.1 | 0.00 | 0.00 | 0.00 | 86 | 1010.3 |
| 20260507073658 | 23 | 304 | 8.0 | 14.5 | 0.00 | 0.00 | 0.00 | 86 | 1010.0 |
| 20260507073154 | 23 | 200 | 6.4 | 25.7 | 0.00 | 0.00 | 0.00 | 86 | 1010.1 |
| 20260507072653 | 23 | 199 | 9.7 | 17.7 | 0.00 | 0.00 | 0.00 | 86 | 1010.0 |
| 20260507072150 | 23 | 195 | 17.7 | 24.1 | 0.00 | 0.00 | 0.00 | 86 | 1009.7 |
| 20260507071648 | 23 | 215 | 8.0 | 20.9 | 0.00 | 0.00 | 0.00 | 86 | 1010.2 |
| 20260507071143 | 23 | 223 | 11.3 | 25.7 | 0.00 | 0.00 | 0.00 | 86 | 1010.4 |
| 20260507070641 | 23 | 201 | 3.2 | 11.3 | 0.00 | 0.00 | 0.00 | 86 | 1010.4 |
| 20260507070137 | 23 | 215 | 9.7 | 22.5 | 0.00 | 0.00 | 0.00 | 86 | 1010.7 |
| 20260507065634 | 23 | 254 | 6.4 | 16.1 | 0.00 | 0.00 | 0.00 | 86 | 1010.6 |
| 20260507065131 | 23 | 217 | 12.9 | 16.1 | 0.00 | 0.00 | 0.00 | 86 | 1010.8 |
| 20260507064628 | 23 | 173 | 8.0 | 12.9 | 0.00 | 0.00 | 0.00 | 86 | 1010.9 |
| 20260507064127 | 23 | 232 | 9.7 | 17.7 | 0.00 | 0.00 | 0.00 | 86 | 1011.0 |
| 20260507063624 | 23 | 169 | 11.3 | 17.7 | 0.00 | 0.00 | 0.00 | 86 | 1011.2 |
| 20260507063121 | 23 | 239 | 8.0 | 20.9 | 0.00 | 0.00 | 0.00 | 87 | 1011.4 |
| 20260507062617 | 23 | 229 | 8.0 | 11.3 | 0.00 | 0.00 | 0.00 | 87 | 1011.5 |
| 20260507062115 | 23 | 223 | 8.0 | 12.9 | 0.00 | 0.00 | 0.00 | 87 | 1011.4 |
| 20260507061613 | 23 | 178 | 6.4 | 11.3 | 0.00 | 0.00 | 0.00 | 87 | 1011.7 |
| 20260507061111 | 23 | 280 | 6.4 | 11.3 | 0.00 | 0.00 | 0.00 | 87 | 1012.0 |
| 20260507060609 | 23 | 203 | 12.9 | 17.7 | 0.00 | 0.00 | 0.00 | 87 | 1012.2 |
| 20260507060105 | 23 | 209 | 1.6 | 11.3 | 0.00 | 0.00 | 0.00 | 87 | 1012.0 |
| 20260507055600 | 23 | 220 | 9.7 | 17.7 | 0.00 | 0.00 | 0.00 | 87 | 1012.3 |
| 20260507055056 | 23 | 254 | 6.4 | 16.1 | 0.00 | 0.00 | 0.00 | 87 | 1012.4 |
| 20260507054552 | 23 | 218 | 11.3 | 12.9 | 0.00 | 0.00 | 0.00 | 87 | 1012.4 |
| 20260507054050 | 23 | 178 | 4.8 | 8.0 | 0.00 | 0.00 | 0.00 | 87 | 1012.4 |
| 20260507053548 | 23 | 240 | 6.4 | 14.5 | 0.00 | 0.00 | 0.00 | 87 | 1012.7 |
| 20260507053046 | 23 | 235 | 3.2 | 4.8 | 0.00 | 0.00 | 0.00 | 87 | 1012.5 |
| 20260507052543 | 23 | 259 | 8.0 | 11.3 | 0.00 | 0.00 | 0.00 | 87 | 1012.7 |
| 20260507052040 | 23 | 255 | 3.2 | 4.8 | 0.00 | 0.00 | 0.00 | 87 | 1012.7 |
| 20260507051538 | 23 | 224 | 3.2 | 4.8 | 0.00 | 0.00 | 0.00 | 87 | 1012.6 |
| 20260507051034 | 23 | 181 | 1.6 | 4.8 | 0.00 | 0.00 | 0.00 | 87 | 1012.6 |
| 20260507050531 | 23 | 234 | 0.0 | 1.6 | 0.00 | 0.00 | 0.00 | 87 | 1013.1 |
| 20260507050027 | 23 | 163 | 4.8 | 11.3 | 0.00 | 0.00 | 0.00 | 87 | 1013.1 |
| 20260507045524 | 23 | 207 | 1.6 | 8.0 | 0.00 | 0.00 | 0.00 | 87 | 1012.9 |
| 20260507045021 | 23 | 211 | 4.8 | 9.7 | 0.00 | 0.00 | 0.00 | 87 | 1013.0 |
| 20260507044518 | 23 | 208 | 6.4 | 12.9 | 0.00 | 0.00 | 0.00 | 87 | 1012.8 |
| 20260507044015 | 23 | 135 | 3.2 | 4.8 | 0.00 | 0.00 | 0.00 | 87 | 1012.8 |
| 20260507043511 | 23 | 192 | 4.8 | 12.9 | 0.00 | 0.00 | 0.00 | 87 | 1012.9 |
| 20260507043008 | 23 | 206 | 3.2 | 9.7 | 0.00 | 0.00 | 0.00 | 87 | 1013.0 |
| 20260507042504 | 23 | 197 | 4.8 | 11.3 | 0.00 | 0.00 | 0.00 | 87 | 1012.6 |
| 20260507041959 | 23 | 223 | 8.0 | 14.5 | 0.00 | 0.00 | 0.00 | 87 | 1012.7 |
| 20260507041457 | 23 | 163 | 11.3 | 22.5 | 0.00 | 0.00 | 0.00 | 87 | 1013.0 |
| 20260507040954 | 23 | 203 | 8.0 | 20.9 | 0.00 | 0.00 | 0.00 | 87 | 1012.7 |
| 20260507040449 | 23 | 157 | 9.7 | 11.3 | 0.00 | 0.00 | 0.00 | 87 | 1012.9 |
| 20260507035945 | 23 | 189 | 16.1 | 20.9 | 0.00 | 0.00 | 0.00 | 87 | 1012.8 |
| 20260507035442 | 23 | 256 | 6.4 | 17.7 | 0.00 | 0.00 | 0.00 | 87 | 1012.5 |
| 20260507034939 | 23 | 190 | 11.3 | 17.7 | 0.00 | 0.00 | 0.00 | 87 | 1012.7 |
| 20260507034436 | 23 | 206 | 8.0 | 12.9 | 0.00 | 0.00 | 0.00 | 87 | 1012.6 |
| 20260507033934 | 23 | 195 | 11.3 | 14.5 | 0.00 | 0.00 | 0.00 | 87 | 1012.1 |
| 20260507033431 | 23 | 193 | 9.7 | 24.1 | 0.00 | 0.00 | 0.00 | 88 | 1012.3 |
| 20260507032928 | 23 | 181 | 9.7 | 12.9 | 0.00 | 0.00 | 0.00 | 87 | 1012.5 |
| 20260507032425 | 23 | 233 | 8.0 | 14.5 | 0.00 | 0.00 | 0.00 | 87 | 1012.3 |
| 20260507031921 | 23 | 167 | 11.3 | 16.1 | 0.00 | 0.00 | 0.00 | 88 | 1012.3 |
| 20260507031418 | 23 | 215 | 9.7 | 16.1 | 0.00 | 0.00 | 0.00 | 88 | 1011.9 |
| 20260507030915 | 23 | 231 | 9.7 | 14.5 | 0.00 | 0.00 | 0.00 | 88 | 1012.1 |
| 20260507030412 | 23 | 190 | 8.0 | 20.9 | 0.00 | 0.00 | 0.00 | 88 | 1012.1 |
| 20260507025909 | 23 | 224 | 8.0 | 16.1 | 0.00 | 0.00 | 0.00 | 88 | 1012.6 |
| 20260507025406 | 23 | 207 | 8.0 | 17.7 | 0.00 | 0.00 | 0.00 | 88 | 1012.4 |
| 20260507024904 | 23 | 216 | 4.8 | 20.9 | 0.00 | 0.00 | 0.00 | 88 | 1012.3 |
| 20260507024401 | 23 | 221 | 9.7 | 14.5 | 0.00 | 0.00 | 0.00 | 88 | 1012.4 |
| 20260507023857 | 23 | 167 | 17.7 | 20.9 | 0.00 | 0.00 | 0.00 | 87 | 1012.0 |
| 20260507023354 | 22 | 207 | 9.7 | 14.5 | 0.00 | 0.00 | 0.00 | 87 | 1011.8 |
| 20260507022851 | 22 | 150 | 6.4 | 14.5 | 0.00 | 0.00 | 0.00 | 87 | 1012.0 |
| 20260507022347 | 22 | 160 | 16.1 | 24.1 | 0.00 | 0.00 | 0.00 | 87 | 1012.1 |
| 20260507021843 | 22 | 212 | 8.0 | 14.5 | 0.00 | 0.00 | 0.00 | 87 | 1012.4 |
| 20260507021339 | 22 | 195 | 9.7 | 17.7 | 0.00 | 0.00 | 0.00 | 87 | 1012.2 |
| 20260507020837 | 22 | 238 | 9.7 | 12.9 | 0.00 | 0.00 | 0.00 | 87 | 1012.5 |
| 20260507020333 | 22 | 210 | 9.7 | 17.7 | 0.00 | 0.00 | 0.00 | 88 | 1012.6 |
| 20260507015831 | 22 | 191 | 11.3 | 12.9 | 0.00 | 0.00 | 0.00 | 87 | 1012.6 |
| 20260507015329 | 22 | 214 | 3.2 | 14.5 | 0.00 | 0.00 | 0.00 | 87 | 1012.3 |
| 20260507014825 | 22 | 218 | 12.9 | 16.1 | 0.00 | 0.00 | 0.00 | 87 | 1012.6 |
| 20260507014321 | 22 | 230 | 11.3 | 14.5 | 0.00 | 0.00 | 0.00 | 87 | 1012.9 |
| 20260507013818 | 22 | 199 | 6.4 | 12.9 | 0.00 | 0.00 | 0.00 | 87 | 1012.9 |
| 20260507013315 | 22 | 216 | 11.3 | 14.5 | 0.00 | 0.00 | 0.00 | 87 | 1012.6 |
| 20260507012813 | 22 | 243 | 3.2 | 17.7 | 0.00 | 0.00 | 0.00 | 87 | 1012.7 |
| 20260507012308 | 22 | 219 | 8.0 | 17.7 | 0.00 | 0.00 | 0.00 | 87 | 1012.8 |
| 20260507011800 | 22 | 201 | 12.9 | 20.9 | 0.00 | 0.00 | 0.00 | 87 | 1012.9 |
| 20260507011256 | 22 | 182 | 3.2 | 16.1 | 0.00 | 0.00 | 0.00 | 87 | 1012.9 |
| 20260507010756 | 22 | 232 | 8.0 | 12.9 | 0.00 | 0.00 | 0.00 | 86 | 1012.9 |
| 20260507010252 | 22 | 203 | 9.7 | 17.7 | 0.00 | 0.00 | 0.00 | 86 | 1013.1 |
| 20260507005750 | 22 | 188 | 4.8 | 11.3 | 0.00 | 0.00 | 0.00 | 86 | 1013.1 |
| 20260507005246 | 22 | 238 | 12.9 | 14.5 | 0.00 | 0.00 | 0.00 | 86 | 1012.9 |
| 20260507004743 | 22 | 222 | 9.7 | 17.7 | 0.00 | 0.00 | 0.00 | 86 | 1012.7 |
| 20260507004241 | 22 | 195 | 4.8 | 12.9 | 0.00 | 0.00 | 0.00 | 85 | 1012.8 |
| 20260507003737 | 23 | 255 | 4.8 | 12.9 | 0.00 | 0.00 | 0.00 | 85 | 1012.7 |
| 20260507003232 | 23 | 193 | 6.4 | 17.7 | 0.00 | 0.00 | 0.00 | 84 | 1012.5 |
| 20260507002728 | 23 | 228 | 8.0 | 12.9 | 0.00 | 0.00 | 0.00 | 84 | 1012.7 |
| 20260507002224 | 23 | 169 | 8.0 | 11.3 | 0.00 | 0.00 | 0.00 | 83 | 1012.6 |
| 20260507001721 | 23 | 187 | 4.8 | 12.9 | 0.00 | 0.00 | 0.00 | 82 | 1012.7 |
| 20260507001219 | 23 | 214 | 11.3 | 12.9 | 0.00 | 0.00 | 0.00 | 82 | 1012.7 |
| 20260507000715 | 23 | 160 | 6.4 | 9.7 | 0.00 | 0.00 | 0.00 | 81 | 1012.9 |
| 20260507000212 | 23 | 186 | 4.8 | 14.5 | 0.00 | 0.00 | 0.00 | 81 | 1012.9 |
| 20260506235708 | 23 | 203 | 14.5 | 22.5 | 0.00 | 0.00 | 0.00 | 80 | 1012.9 |
| 20260506235203 | 23 | 234 | 4.8 | 14.5 | 0.00 | 0.00 | 0.00 | 79 | 1012.7 |
| 20260506234700 | 23 | 219 | 3.2 | 9.7 | 0.00 | 0.00 | 0.00 | 79 | 1012.8 |
| 20260506234157 | 23 | 161 | 11.3 | 17.7 | 0.00 | 0.00 | 0.00 | 79 | 1012.7 |
| 20260506233655 | 23 | 197 | 8.0 | 24.1 | 0.00 | 0.00 | 0.00 | 78 | 1012.5 |
| 20260506233151 | 23 | 190 | 14.5 | 27.4 | 0.00 | 0.00 | 0.00 | 78 | 1012.2 |
| 20260506232647 | 23 | 239 | 11.3 | 20.9 | 0.00 | 0.00 | 0.00 | 77 | 1012.6 |
| 20260506232142 | 23 | 209 | 14.5 | 22.5 | 0.00 | 0.00 | 0.00 | 77 | 1012.7 |
| 20260506231640 | 23 | 184 | 9.7 | 24.1 | 0.00 | 0.00 | 0.00 | 77 | 1012.6 |
| 20260506231139 | 23 | 201 | 17.7 | 20.9 | 0.00 | 0.00 | 0.00 | 77 | 1012.9 |
| 20260506230635 | 24 | 208 | 9.7 | 12.9 | 0.00 | 0.00 | 0.00 | 77 | 1012.9 |
| 20260506230132 | 24 | 143 | 4.8 | 8.0 | 0.00 | 0.00 | 0.00 | 77 | 1013.1 |
| 20260506225629 | 24 | 234 | 4.8 | 9.7 | 0.00 | 0.00 | 0.00 | 77 | 1013.0 |
| 20260506225125 | 24 | 210 | 6.4 | 14.5 | 0.00 | 0.00 | 0.00 | 76 | 1012.9 |
| 20260506224622 | 24 | 189 | 9.7 | 14.5 | 0.00 | 0.00 | 0.00 | 76 | 1012.9 |
| 20260506224118 | 24 | 190 | 14.5 | 17.7 | 0.00 | 0.00 | 0.00 | 76 | 1013.1 |
| 20260506223615 | 24 | 204 | 4.8 | 12.9 | 0.00 | 0.00 | 0.00 | 76 | 1012.9 |
| 20260506223111 | 24 | 243 | 9.7 | 20.9 | 0.00 | 0.00 | 0.00 | 75 | 1012.7 |
| 20260506222608 | 25 | 147 | 20.9 | 32.2 | 0.00 | 0.00 | 0.00 | 75 | 1012.5 |
| 20260506222104 | 25 | 201 | 14.5 | 22.5 | 0.00 | 0.00 | 0.00 | 75 | 1012.7 |
| 20260506221602 | 25 | 161 | 9.7 | 24.1 | 0.00 | 0.00 | 0.00 | 75 | 1012.5 |
| 20260506221100 | 25 | 212 | 9.7 | 29.0 | 0.00 | 0.00 | 0.00 | 74 | 1012.6 |
| 20260506220556 | 25 | 203 | 17.7 | 32.2 | 0.00 | 0.00 | 0.00 | 74 | 1012.6 |
| 20260506220051 | 25 | 221 | 9.7 | 20.9 | 0.00 | 0.00 | 0.00 | 74 | 1012.5 |
| 20260506215548 | 25 | 214 | 16.1 | 22.5 | 0.00 | 0.00 | 0.00 | 74 | 1012.7 |
| 20260506215044 | 25 | 227 | 11.3 | 24.1 | 0.00 | 0.00 | 0.00 | 74 | 1012.6 |
| 20260506214541 | 25 | 223 | 30.6 | 37.0 | 0.00 | 0.00 | 0.00 | 74 | 1012.6 |
| 20260506214038 | 25 | 233 | 8.0 | 20.9 | 0.00 | 0.00 | 0.00 | 74 | 1012.8 |
| 20260506213536 | 25 | 224 | 14.5 | 40.2 | 0.00 | 0.00 | 0.00 | 74 | 1012.7 |
| 20260506213033 | 25 | 204 | 9.7 | 22.5 | 0.00 | 0.00 | 0.00 | 74 | 1012.8 |
| 20260506212530 | 25 | 183 | 17.7 | 25.7 | 0.00 | 0.00 | 0.00 | 73 | 1012.7 |
| 20260506212025 | 25 | 202 | 11.3 | 17.7 | 0.00 | 0.00 | 0.00 | 73 | 1012.9 |
| 20260506211521 | 25 | 229 | 14.5 | 29.0 | 0.00 | 0.00 | 0.00 | 73 | 1012.9 |
| 20260506211018 | 25 | 227 | 14.5 | 27.4 | 0.00 | 0.00 | 0.00 | 72 | 1012.8 |
| 20260506210515 | 25 | 220 | 14.5 | 24.1 | 0.00 | 0.00 | 0.00 | 71 | 1012.8 |
| 20260506210011 | 25 | 204 | 12.9 | 35.4 | 0.00 | 0.00 | 0.00 | 71 | 1012.8 |
| 20260506205508 | 26 | 182 | 14.5 | 17.7 | 0.00 | 0.00 | 0.00 | 70 | 1012.8 |
| 20260506205004 | 26 | 164 | 17.7 | 27.4 | 0.00 | 0.00 | 0.00 | 70 | 1012.7 |
| 20260506204502 | 26 | 201 | 16.1 | 27.4 | 0.00 | 0.00 | 0.00 | 70 | 1012.9 |
| 20260506203958 | 26 | 183 | 17.7 | 35.4 | 0.00 | 0.00 | 0.00 | 70 | 1012.9 |
| 20260506203456 | 26 | 230 | 6.4 | 25.7 | 0.00 | 0.00 | 0.00 | 70 | 1013.0 |
| 20260506202953 | 26 | 212 | 8.0 | 25.7 | 0.00 | 0.00 | 0.00 | 70 | 1012.9 |
| 20260506202450 | 26 | 219 | 11.3 | 24.1 | 0.00 | 0.00 | 0.00 | 70 | 1012.8 |
| 20260506201940 | 26 | 205 | 19.3 | 27.4 | 0.00 | 0.00 | 0.00 | 71 | 1013.4 |
| 20260506201438 | 26 | 188 | 11.3 | 14.5 | 0.00 | 0.00 | 0.00 | 71 | 1013.0 |
| 20260506200934 | 26 | 218 | 12.9 | 24.1 | 0.00 | 0.00 | 0.00 | 72 | 1013.3 |
| 20260506200431 | 26 | 206 | 8.0 | 17.7 | 0.00 | 0.00 | 0.00 | 71 | 1013.3 |
| 20260506195927 | 26 | 195 | 19.3 | 33.8 | 0.00 | 0.00 | 0.00 | 72 | 1013.3 |
| 20260506195424 | 26 | 223 | 14.5 | 17.7 | 0.00 | 0.00 | 0.00 | 71 | 1013.4 |
| 20260506194921 | 26 | 201 | 19.3 | 27.4 | 0.00 | 0.00 | 0.00 | 71 | 1013.3 |
| 20260506194418 | 26 | 217 | 8.0 | 20.9 | 0.00 | 0.00 | 0.00 | 70 | 1013.5 |
| 20260506193915 | 26 | 185 | 17.7 | 27.4 | 0.00 | 0.00 | 0.00 | 70 | 1013.4 |
| 20260506193412 | 27 | 180 | 16.1 | 27.4 | 0.00 | 0.00 | 0.00 | 70 | 1013.4 |
| 20260506192908 | 27 | 204 | 14.5 | 29.0 | 0.00 | 0.00 | 0.00 | 68 | 1013.3 |
| 20260506192405 | 27 | 190 | 19.3 | 41.8 | 0.00 | 0.00 | 0.00 | 67 | 1013.5 |
| 20260506191902 | 27 | 231 | 9.7 | 17.7 | 0.00 | 0.00 | 0.00 | 68 | 1013.5 |
| 20260506191358 | 27 | 189 | 12.9 | 20.9 | 0.00 | 0.00 | 0.00 | 69 | 1013.6 |
| 20260506190856 | 27 | 146 | 6.4 | 17.7 | 0.00 | 0.00 | 0.00 | 69 | 1013.7 |
| 20260506190352 | 27 | 187 | 14.5 | 24.1 | 0.00 | 0.00 | 0.00 | 69 | 1013.8 |
| 20260506185849 | 27 | 182 | 17.7 | 24.1 | 0.00 | 0.00 | 0.00 | 70 | 1013.9 |
| 20260506185345 | 27 | 232 | 11.3 | 25.7 | 0.00 | 0.00 | 0.00 | 69 | 1014.0 |
| 20260506184837 | 27 | 230 | 9.7 | 22.5 | 0.00 | 0.00 | 0.00 | 70 | 1014.2 |
| 20260506184334 | 27 | 199 | 12.9 | 22.5 | 0.00 | 0.00 | 0.00 | 70 | 1014.1 |
| 20260506183832 | 27 | 223 | 8.0 | 12.9 | 0.00 | 0.00 | 0.00 | 69 | 1014.6 |
| 20260506183327 | 27 | 177 | 4.8 | 20.9 | 0.00 | 0.00 | 0.00 | 70 | 1014.2 |
| 20260506182824 | 27 | 220 | 11.3 | 29.0 | 0.00 | 0.00 | 0.00 | 70 | 1014.3 |
| 20260506182321 | 27 | 223 | 6.4 | 25.7 | 0.00 | 0.00 | 0.00 | 70 | 1014.5 |
| 20260506181819 | 27 | 177 | 11.3 | 16.1 | 0.00 | 0.00 | 0.00 | 70 | 1014.2 |
| 20260506181317 | 27 | 148 | 9.7 | 17.7 | 0.00 | 0.00 | 0.00 | 69 | 1014.4 |
| 20260506180814 | 27 | 206 | 6.4 | 25.7 | 0.00 | 0.00 | 0.00 | 69 | 1014.6 |
| 20260506180309 | 27 | 212 | 20.9 | 32.2 | 0.00 | 0.00 | 0.00 | 69 | 1014.5 |
| 20260506175806 | 27 | 243 | 3.2 | 17.7 | 0.00 | 0.00 | 0.00 | 68 | 1014.7 |
| 20260506175306 | 27 | 214 | 6.4 | 17.7 | 0.00 | 0.00 | 0.00 | 69 | 1014.6 |
| 20260506174800 | 27 | 191 | 6.4 | 17.7 | 0.00 | 0.00 | 0.00 | 69 | 1014.7 |
| 20260506174257 | 27 | 225 | 9.7 | 20.9 | 0.00 | 0.00 | 0.00 | 68 | 1015.1 |
| 20260506173749 | 27 | 219 | 3.2 | 12.9 | 0.00 | 0.00 | 0.00 | 69 | 1015.0 |
| 20260506173246 | 27 | 207 | 12.9 | 14.5 | 0.00 | 0.00 | 0.00 | 69 | 1015.2 |
| 20260506172742 | 27 | 188 | 9.7 | 17.7 | 0.00 | 0.00 | 0.00 | 66 | 1014.8 |
| 20260506172239 | 27 | 199 | 6.4 | 16.1 | 0.00 | 0.00 | 0.00 | 66 | 1015.0 |
| 20260506171737 | 27 | 190 | 3.2 | 12.9 | 0.00 | 0.00 | 0.00 | 68 | 1015.0 |
| 20260506171234 | 27 | 252 | 8.0 | 33.8 | 0.00 | 0.00 | 0.00 | 68 | 1015.1 |
| 20260506170731 | 27 | 195 | 14.5 | 20.9 | 0.00 | 0.00 | 0.00 | 66 | 1015.1 |
| 20260506170228 | 27 | 219 | 9.7 | 14.5 | 0.00 | 0.00 | 0.00 | 66 | 1015.2 |
| 20260506165726 | 27 | 236 | 14.5 | 17.7 | 0.00 | 0.00 | 0.00 | 66 | 1015.4 |
| 20260506165223 | 27 | 177 | 9.7 | 12.9 | 0.00 | 0.00 | 0.00 | 67 | 1015.0 |
| 20260506164720 | 27 | 188 | 9.7 | 14.5 | 0.00 | 0.00 | 0.00 | 66 | 1015.0 |
| 20260506164217 | 27 | 204 | 14.5 | 17.7 | 0.00 | 0.00 | 0.00 | 65 | 1015.1 |
| 20260506163713 | 27 | 210 | 9.7 | 12.9 | 0.00 | 0.00 | 0.00 | 67 | 1015.0 |
| 20260506163208 | 27 | 192 | 14.5 | 32.2 | 0.00 | 0.00 | 0.00 | 66 | 1015.1 |
| 20260506162705 | 27 | 189 | 8.0 | 14.5 | 0.00 | 0.00 | 0.00 | 65 | 1015.2 |
| 20260506162202 | 27 | 187 | 14.5 | 17.7 | 0.00 | 0.00 | 0.00 | 65 | 1015.1 |
| 20260506161659 | 26 | 207 | 3.2 | 12.9 | 0.00 | 0.00 | 0.00 | 66 | 1015.3 |
| 20260506161156 | 26 | 184 | 9.7 | 14.5 | 0.00 | 0.00 | 0.00 | 64 | 1015.6 |
| 20260506160654 | 27 | 184 | 12.9 | 20.9 | 0.00 | 0.00 | 0.00 | 64 | 1015.4 |
| 20260506160150 | 27 | 189 | 24.1 | 40.2 | 0.00 | 0.00 | 0.00 | 63 | 1015.3 |
| 20260506155649 | 27 | 249 | 11.3 | 29.0 | 0.00 | 0.00 | 0.00 | 62 | 1015.6 |
| 20260506155146 | 27 | 189 | 14.5 | 20.9 | 0.00 | 0.00 | 0.00 | 61 | 1015.4 |
| 20260506153248 | 27 | 217 | 14.5 | 27.4 | 0.00 | 0.00 | 0.00 | 58 | 1015.6 |
| 20260506152745 | 27 | 233 | 11.3 | 22.5 | 0.00 | 0.00 | 0.00 | 58 | 1015.6 |
| 20260506152242 | 27 | 182 | 8.0 | 12.9 | 0.00 | 0.00 | 0.00 | 59 | 1015.7 |
| 20260506151741 | 27 | 210 | 8.0 | 16.1 | 0.00 | 0.00 | 0.00 | 59 | 1015.7 |
| 20260506151237 | 27 | 224 | 14.5 | 22.5 | 0.00 | 0.00 | 0.00 | 61 | 1015.8 |
| 20260506150733 | 27 | 303 | 14.5 | 20.9 | 0.00 | 0.00 | 0.00 | 62 | 1015.8 |
| 20260506150231 | 27 | 203 | 3.2 | 17.7 | 0.00 | 0.00 | 0.00 | 61 | 1015.5 |
| 20260506145728 | 27 | 208 | 9.7 | 22.5 | 0.00 | 0.00 | 0.00 | 62 | 1015.4 |
| 20260506145224 | 27 | 203 | 9.7 | 16.1 | 0.00 | 0.00 | 0.00 | 61 | 1015.6 |
| 20260506144722 | 26 | 237 | 8.0 | 16.1 | 0.00 | 0.00 | 0.00 | 66 | 1015.4 |
| 20260506144219 | 26 | 207 | 6.4 | 12.9 | 0.00 | 0.00 | 0.00 | 67 | 1015.2 |
| 20260506143716 | 26 | 213 | 8.0 | 17.7 | 0.00 | 0.00 | 0.00 | 67 | 1015.3 |
| 20260506143214 | 26 | 211 | 11.3 | 20.9 | 0.00 | 0.00 | 0.00 | 70 | 1015.3 |
| 20260506142712 | 26 | 183 | 8.0 | 14.5 | 0.00 | 0.00 | 0.00 | 68 | 1015.3 |
| 20260506142210 | 26 | 182 | 6.4 | 14.5 | 0.00 | 0.00 | 0.00 | 70 | 1015.2 |
| 20260506141707 | 26 | 153 | 12.9 | 16.1 | 0.00 | 0.00 | 0.00 | 69 | 1015.3 |
| 20260506141205 | 26 | 231 | 6.4 | 17.7 | 0.00 | 0.00 | 0.00 | 68 | 1015.3 |
| 20260506140703 | 26 | 211 | 8.0 | 24.1 | 0.00 | 0.00 | 0.00 | 68 | 1015.4 |
| 20260506140159 | 25 | 195 | 9.7 | 24.1 | 0.00 | 0.00 | 0.00 | 69 | 1015.3 |
| 20260506135656 | 25 | 197 | 11.3 | 12.9 | 0.00 | 0.00 | 0.00 | 70 | 1015.2 |
| 20260506135153 | 25 | 203 | 9.7 | 16.1 | 0.00 | 0.00 | 0.00 | 69 | 1015.1 |
| 20260506134649 | 25 | 190 | 4.8 | 11.3 | 0.00 | 0.00 | 0.00 | 69 | 1015.2 |
| 20260506134145 | 25 | 175 | 4.8 | 29.0 | 0.00 | 0.00 | 0.00 | 69 | 1015.2 |
| 20260506133643 | 25 | 198 | 1.6 | 16.1 | 0.00 | 0.00 | 0.00 | 72 | 1015.1 |
| 20260506133140 | 25 | 231 | 14.5 | 17.7 | 0.00 | 0.00 | 0.00 | 71 | 1015.2 |
| 20260506132637 | 25 | 186 | 9.7 | 29.0 | 0.00 | 0.00 | 0.00 | 72 | 1015.1 |
| 20260506132133 | 24 | 222 | 11.3 | 14.5 | 0.00 | 0.00 | 0.00 | 75 | 1015.0 |
| 20260506131631 | 24 | 225 | 8.0 | 14.5 | 0.00 | 0.00 | 0.00 | 74 | 1015.0 |
| 20260506131127 | 23 | 173 | 6.4 | 33.8 | 0.00 | 0.00 | 0.00 | 77 | 1015.1 |
| 20260506130624 | 23 | 182 | 4.8 | 9.7 | 0.00 | 0.00 | 0.00 | 77 | 1015.1 |
| 20260506130122 | 23 | 164 | 11.3 | 22.5 | 0.00 | 0.00 | 0.00 | 79 | 1014.9 |
| 20260506125620 | 23 | 223 | 8.0 | 14.5 | 0.00 | 0.00 | 0.00 | 81 | 1015.0 |
| 20260506125117 | 22 | 184 | 9.7 | 14.5 | 0.00 | 0.00 | 0.00 | 82 | 1015.1 |
| 20260506124615 | 22 | 217 | 11.3 | 16.1 | 0.00 | 0.00 | 0.00 | 85 | 1015.0 |
| 20260506124113 | 21 | 202 | 9.7 | 17.7 | 0.00 | 0.00 | 0.00 | 85 | 1014.8 |
| 20260506123610 | 21 | 142 | 6.4 | 8.0 | 0.00 | 0.00 | 0.00 | 90 | 1014.8 |
| 20260506123109 | 20 | 206 | 3.2 | 12.9 | 0.00 | 0.00 | 0.00 | 93 | 1015.0 |
| 20260506122605 | 20 | 200 | 6.4 | 9.7 | 0.00 | 0.00 | 0.00 | 97 | 1014.8 |
| 20260506122103 | 18 | 186 | 8.0 | 14.5 | 0.00 | 0.00 | 0.00 | 98 | 1014.8 |
| 20260506121600 | 18 | 250 | 1.6 | 4.8 | 0.00 | 0.00 | 0.00 | 97 | 1015.0 |
| 20260506121056 | 17 | 145 | 0.0 | 3.2 | 0.00 | 0.00 | 0.00 | 97 | 1014.9 |
| 20260506120554 | 17 | 182 | 1.6 | 3.2 | 0.00 | 0.00 | 0.00 | 97 | 1015.0 |
| 20260506120051 | 17 | 187 | 1.6 | 4.8 | 0.00 | 0.00 | 0.00 | 97 | 1014.8 |
| 20260506115549 | 16 | 198 | 3.2 | 8.0 | 0.00 | 0.00 | 0.00 | 96 | 1014.8 |
| 20260506115048 | 16 | 151 | 0.0 | 0.0 | 0.00 | 0.00 | 0.00 | 96 | 1014.9 |
| 20260506114545 | 16 | 145 | 0.0 | 0.0 | 0.00 | 0.00 | 0.00 | 96 | 1014.7 |
| 20260506114043 | 16 | 151 | 0.0 | 0.0 | 0.00 | 0.00 | 0.00 | 96 | 1014.7 |
| 20260506113540 | 16 | 156 | 0.0 | 0.0 | 0.00 | 0.00 | 0.00 | 96 | 1014.4 |
| 20260506113038 | 16 | 159 | 0.0 | 0.0 | 0.00 | 0.00 | 0.00 | 96 | 1014.6 |
| 20260506112534 | 16 | 158 | 0.0 | 0.0 | 0.00 | 0.00 | 0.00 | 96 | 1014.6 |
| 20260506112031 | 15 | 158 | 0.0 | 1.6 | 0.00 | 0.00 | 0.00 | 95 | 1014.5 |
| 20260506111529 | 15 | 194 | 0.0 | 0.0 | 0.00 | 0.00 | 0.00 | 95 | 1014.6 |
| 20260506111026 | 15 | 203 | 0.0 | 0.0 | 0.00 | 0.00 | 0.00 | 95 | 1014.4 |
| 20260506110524 | 15 | 205 | 0.0 | 0.0 | 0.00 | 0.00 | 0.00 | 95 | 1014.5 |
| 20260506110021 | 15 | 201 | 0.0 | 1.6 | 0.00 | 0.00 | 0.00 | 95 | 1014.4 |
| 20260506105517 | 15 | 205 | 0.0 | 0.0 | 0.00 | 0.00 | 0.00 | 95 | 1014.4 |
| 20260506105014 | 15 | 205 | 0.0 | 0.0 | 0.00 | 0.00 | 0.00 | 95 | 1014.3 |
| 20260506104512 | 15 | 205 | 0.0 | 0.0 | 0.00 | 0.00 | 0.00 | 95 | 1014.3 |
| 20260506104010 | 15 | 205 | 0.0 | 0.0 | 0.00 | 0.00 | 0.00 | 95 | 1014.3 |
| 20260506103507 | 15 | 206 | 0.0 | 0.0 | 0.00 | 0.00 | 0.00 | 95 | 1014.3 |
| 20260506103004 | 15 | 208 | 0.0 | 0.0 | 0.00 | 0.00 | 0.00 | 95 | 1014.4 |
| 20260506102502 | 15 | 213 | 0.0 | 0.0 | 0.00 | 0.00 | 0.00 | 95 | 1014.2 |
| 20260506101959 | 15 | 206 | 0.0 | 1.6 | 0.00 | 0.00 | 0.00 | 95 | 1014.2 |
| 20260506101455 | 15 | 204 | 0.0 | 0.0 | 0.00 | 0.00 | 0.00 | 95 | 1014.1 |
| 20260506100953 | 15 | 205 | 0.0 | 0.0 | 0.00 | 0.00 | 0.00 | 95 | 1014.2 |
| 20260506100451 | 15 | 205 | 0.0 | 0.0 | 0.00 | 0.00 | 0.00 | 95 | 1014.2 |
| 20260506095949 | 15 | 204 | 0.0 | 0.0 | 0.00 | 0.00 | 0.00 | 95 | 1013.9 |